sensor_id;sensor_type;location;lat;lon;timestamp;temperature;humidity
52899;DHT22;38763;53.096;6.062;2023-06-10T00:02:14;17.40;99.90
52899;DHT22;38763;53.096;6.062;2023-06-10T00:04:42;17.40;99.90
52899;DHT22;38763;53.096;6.062;2023-06-10T00:07:08;17.40;99.90
52899;DHT22;38763;53.096;6.062;2023-06-10T00:09:38;17.30;99.90
52899;DHT22;38763;53.096;6.062;2023-06-10T00:12:04;17.30;99.90
52899;DHT22;38763;53.096;6.062;2023-06-10T00:14:30;17.30;99.90
52899;DHT22;38763;53.096;6.062;2023-06-10T00:16:56;17.30;99.90
52899;DHT22;38763;53.096;6.062;2023-06-10T00:19:24;17.20;99.90
52899;DHT22;38763;53.096;6.062;2023-06-10T00:21:56;17.20;99.90
52899;DHT22;38763;53.096;6.062;2023-06-10T00:24:22;17.20;99.90
52899;DHT22;38763;53.096;6.062;2023-06-10T00:26:48;17.20;99.90
52899;DHT22;38763;53.096;6.062;2023-06-10T00:29:14;17.10;99.90
52899;DHT22;38763;53.096;6.062;2023-06-10T00:31:40;17.10;99.90
52899;DHT22;38763;53.096;6.062;2023-06-10T00:34:07;17.10;99.90
52899;DHT22;38763;53.096;6.062;2023-06-10T00:36:32;17.00;99.90
52899;DHT22;38763;53.096;6.062;2023-06-10T00:38:58;17.10;99.90
52899;DHT22;38763;53.096;6.062;2023-06-10T00:41:24;17.10;99.90
52899;DHT22;38763;53.096;6.062;2023-06-10T00:43:52;17.00;99.90
52899;DHT22;38763;53.096;6.062;2023-06-10T00:46:17;16.90;99.90
52899;DHT22;38763;53.096;6.062;2023-06-10T00:48:45;16.90;99.90
52899;DHT22;38763;53.096;6.062;2023-06-10T00:51:10;16.90;99.90
52899;DHT22;38763;53.096;6.062;2023-06-10T00:53:39;16.90;99.90
52899;DHT22;38763;53.096;6.062;2023-06-10T00:56:06;16.90;99.90
52899;DHT22;38763;53.096;6.062;2023-06-10T00:58:31;16.80;99.90
52899;DHT22;38763;53.096;6.062;2023-06-10T01:00:57;16.80;99.90
52899;DHT22;38763;53.096;6.062;2023-06-10T01:03:23;16.80;99.90
52899;DHT22;38763;53.096;6.062;2023-06-10T01:05:57;16.80;99.90
52899;DHT22;38763;53.096;6.062;2023-06-10T01:08:28;16.70;99.90
52899;DHT22;38763;53.096;6.062;2023-06-10T01:10:59;16.70;99.90
52899;DHT22;38763;53.096;6.062;2023-06-10T01:13:26;16.70;99.90
52899;DHT22;38763;53.096;6.062;2023-06-10T01:15:57;16.70;99.90
52899;DHT22;38763;53.096;6.062;2023-06-10T01:18:23;16.60;99.90
52899;DHT22;38763;53.096;6.062;2023-06-10T01:20:49;16.60;99.90
52899;DHT22;38763;53.096;6.062;2023-06-10T01:23:15;16.60;99.90
52899;DHT22;38763;53.096;6.062;2023-06-10T01:26:01;16.60;99.90
52899;DHT22;38763;53.096;6.062;2023-06-10T01:28:53;16.50;99.90
52899;DHT22;38763;53.096;6.062;2023-06-10T01:33:59;16.50;99.90
52899;DHT22;38763;53.096;6.062;2023-06-10T01:36:25;16.50;99.90
52899;DHT22;38763;53.096;6.062;2023-06-10T01:38:53;16.40;99.90
52899;DHT22;38763;53.096;6.062;2023-06-10T01:41:19;16.40;99.90
52899;DHT22;38763;53.096;6.062;2023-06-10T01:43:47;16.40;99.90
52899;DHT22;38763;53.096;6.062;2023-06-10T01:46:13;16.40;99.90
52899;DHT22;38763;53.096;6.062;2023-06-10T01:48:38;16.30;99.90
52899;DHT22;38763;53.096;6.062;2023-06-10T01:51:05;16.30;99.90
52899;DHT22;38763;53.096;6.062;2023-06-10T01:53:30;16.30;99.90
52899;DHT22;38763;53.096;6.062;2023-06-10T01:55:56;16.30;99.90
52899;DHT22;38763;53.096;6.062;2023-06-10T01:58:22;16.20;99.90
52899;DHT22;38763;53.096;6.062;2023-06-10T02:00:47;16.20;99.90
52899;DHT22;38763;53.096;6.062;2023-06-10T02:03:13;16.20;99.90
52899;DHT22;38763;53.096;6.062;2023-06-10T02:05:39;16.20;99.90
52899;DHT22;38763;53.096;6.062;2023-06-10T02:08:05;16.10;99.90
52899;DHT22;38763;53.096;6.062;2023-06-10T02:10:30;16.20;99.90
52899;DHT22;38763;53.096;6.062;2023-06-10T02:12:56;16.10;99.90
52899;DHT22;38763;53.096;6.062;2023-06-10T02:15:22;16.10;99.90
52899;DHT22;38763;53.096;6.062;2023-06-10T02:17:47;16.10;99.90
52899;DHT22;38763;53.096;6.062;2023-06-10T02:20:16;16.00;99.90
52899;DHT22;38763;53.096;6.062;2023-06-10T02:22:42;16.00;99.90
52899;DHT22;38763;53.096;6.062;2023-06-10T02:25:08;16.00;99.90
52899;DHT22;38763;53.096;6.062;2023-06-10T02:27:34;15.90;99.90
52899;DHT22;38763;53.096;6.062;2023-06-10T02:29:59;15.90;99.90
52899;DHT22;38763;53.096;6.062;2023-06-10T02:32:25;15.90;99.90
52899;DHT22;38763;53.096;6.062;2023-06-10T02:34:51;15.80;99.90
52899;DHT22;38763;53.096;6.062;2023-06-10T02:37:17;15.80;99.90
52899;DHT22;38763;53.096;6.062;2023-06-10T02:39:42;15.70;99.90
52899;DHT22;38763;53.096;6.062;2023-06-10T02:42:08;15.70;99.90
52899;DHT22;38763;53.096;6.062;2023-06-10T02:44:34;15.60;99.90
52899;DHT22;38763;53.096;6.062;2023-06-10T02:47:00;15.70;99.90
52899;DHT22;38763;53.096;6.062;2023-06-10T02:49:25;15.60;99.90
52899;DHT22;38763;53.096;6.062;2023-06-10T02:51:54;15.60;99.90
52899;DHT22;38763;53.096;6.062;2023-06-10T02:54:20;15.50;99.90
52899;DHT22;38763;53.096;6.062;2023-06-10T02:56:46;15.50;99.90
52899;DHT22;38763;53.096;6.062;2023-06-10T02:59:14;15.50;99.90
52899;DHT22;38763;53.096;6.062;2023-06-10T03:01:40;15.40;99.90
52899;DHT22;38763;53.096;6.062;2023-06-10T03:04:06;15.40;99.90
52899;DHT22;38763;53.096;6.062;2023-06-10T03:06:33;15.30;99.90
52899;DHT22;38763;53.096;6.062;2023-06-10T03:09:00;15.40;99.90
52899;DHT22;38763;53.096;6.062;2023-06-10T03:11:26;15.30;99.90
52899;DHT22;38763;53.096;6.062;2023-06-10T03:13:52;15.30;99.90
52899;DHT22;38763;53.096;6.062;2023-06-10T03:16:19;15.30;99.90
52899;DHT22;38763;53.096;6.062;2023-06-10T03:18:45;15.20;99.90
52899;DHT22;38763;53.096;6.062;2023-06-10T03:21:11;15.20;99.90
52899;DHT22;38763;53.096;6.062;2023-06-10T03:23:36;15.10;99.90
52899;DHT22;38763;53.096;6.062;2023-06-10T03:26:04;15.20;99.90
52899;DHT22;38763;53.096;6.062;2023-06-10T03:28:30;15.10;99.90
52899;DHT22;38763;53.096;6.062;2023-06-10T03:30:56;15.10;99.90
52899;DHT22;38763;53.096;6.062;2023-06-10T03:33:22;15.10;99.90
52899;DHT22;38763;53.096;6.062;2023-06-10T03:35:48;15.10;99.90
52899;DHT22;38763;53.096;6.062;2023-06-10T03:38:13;15.10;99.90
52899;DHT22;38763;53.096;6.062;2023-06-10T03:40:40;15.00;99.90
52899;DHT22;38763;53.096;6.062;2023-06-10T03:43:05;15.00;99.90
52899;DHT22;38763;53.096;6.062;2023-06-10T03:45:31;15.00;99.90
52899;DHT22;38763;53.096;6.062;2023-06-10T03:47:57;15.00;99.90
52899;DHT22;38763;53.096;6.062;2023-06-10T03:50:23;15.00;99.90
52899;DHT22;38763;53.096;6.062;2023-06-10T03:52:50;15.00;99.90
52899;DHT22;38763;53.096;6.062;2023-06-10T03:55:16;15.00;99.90
52899;DHT22;38763;53.096;6.062;2023-06-10T03:57:42;15.00;99.90
52899;DHT22;38763;53.096;6.062;2023-06-10T04:00:09;14.90;99.90
52899;DHT22;38763;53.096;6.062;2023-06-10T04:02:38;15.00;99.90
52899;DHT22;38763;53.096;6.062;2023-06-10T04:05:11;15.00;99.90
52899;DHT22;38763;53.096;6.062;2023-06-10T04:07:37;15.20;99.90
52899;DHT22;38763;53.096;6.062;2023-06-10T04:10:06;15.20;99.90
52899;DHT22;38763;53.096;6.062;2023-06-10T04:12:32;15.20;99.90
52899;DHT22;38763;53.096;6.062;2023-06-10T04:14:58;15.20;99.90
52899;DHT22;38763;53.096;6.062;2023-06-10T04:17:24;15.20;99.90
52899;DHT22;38763;53.096;6.062;2023-06-10T04:19:49;15.20;99.90
52899;DHT22;38763;53.096;6.062;2023-06-10T04:22:16;15.20;99.90
52899;DHT22;38763;53.096;6.062;2023-06-10T04:24:42;15.20;99.90
52899;DHT22;38763;53.096;6.062;2023-06-10T04:27:08;15.20;99.90
52899;DHT22;38763;53.096;6.062;2023-06-10T04:29:33;15.20;99.90
52899;DHT22;38763;53.096;6.062;2023-06-10T04:31:59;15.10;99.90
52899;DHT22;38763;53.096;6.062;2023-06-10T04:34:27;15.20;99.90
52899;DHT22;38763;53.096;6.062;2023-06-10T04:36:53;15.20;99.90
52899;DHT22;38763;53.096;6.062;2023-06-10T04:39:18;15.10;99.90
52899;DHT22;38763;53.096;6.062;2023-06-10T04:41:45;15.20;99.90
52899;DHT22;38763;53.096;6.062;2023-06-10T04:44:12;15.20;99.90
52899;DHT22;38763;53.096;6.062;2023-06-10T04:46:37;15.20;99.90
52899;DHT22;38763;53.096;6.062;2023-06-10T04:49:03;15.20;99.90
52899;DHT22;38763;53.096;6.062;2023-06-10T04:51:30;15.20;99.90
52899;DHT22;38763;53.096;6.062;2023-06-10T04:53:57;15.20;99.90
52899;DHT22;38763;53.096;6.062;2023-06-10T04:56:23;15.20;99.90
52899;DHT22;38763;53.096;6.062;2023-06-10T04:58:49;15.20;99.90
52899;DHT22;38763;53.096;6.062;2023-06-10T05:01:15;15.20;99.90
52899;DHT22;38763;53.096;6.062;2023-06-10T05:03:41;15.30;99.90
52899;DHT22;38763;53.096;6.062;2023-06-10T05:06:07;15.30;99.90
52899;DHT22;38763;53.096;6.062;2023-06-10T05:08:33;15.30;99.90
52899;DHT22;38763;53.096;6.062;2023-06-10T05:10:58;15.30;99.90
52899;DHT22;38763;53.096;6.062;2023-06-10T05:13:24;15.30;99.90
52899;DHT22;38763;53.096;6.062;2023-06-10T05:15:50;15.40;99.90
52899;DHT22;38763;53.096;6.062;2023-06-10T05:18:15;15.40;99.90
52899;DHT22;38763;53.096;6.062;2023-06-10T05:20:41;15.40;99.90
52899;DHT22;38763;53.096;6.062;2023-06-10T05:23:07;15.40;99.90
52899;DHT22;38763;53.096;6.062;2023-06-10T05:25:32;15.50;99.90
52899;DHT22;38763;53.096;6.062;2023-06-10T05:27:59;15.50;99.90
52899;DHT22;38763;53.096;6.062;2023-06-10T05:30:24;15.60;99.90
52899;DHT22;38763;53.096;6.062;2023-06-10T05:32:51;15.70;99.90
52899;DHT22;38763;53.096;6.062;2023-06-10T05:35:18;15.60;99.90
52899;DHT22;38763;53.096;6.062;2023-06-10T05:37:44;15.70;99.90
52899;DHT22;38763;53.096;6.062;2023-06-10T05:40:10;15.80;99.90
52899;DHT22;38763;53.096;6.062;2023-06-10T05:42:36;15.90;99.90
52899;DHT22;38763;53.096;6.062;2023-06-10T05:45:02;16.00;99.90
52899;DHT22;38763;53.096;6.062;2023-06-10T05:47:28;16.00;99.90
52899;DHT22;38763;53.096;6.062;2023-06-10T05:49:54;16.20;99.90
52899;DHT22;38763;53.096;6.062;2023-06-10T05:52:20;16.30;99.90
52899;DHT22;38763;53.096;6.062;2023-06-10T05:54:46;16.40;99.90
52899;DHT22;38763;53.096;6.062;2023-06-10T05:57:11;16.50;99.90
52899;DHT22;38763;53.096;6.062;2023-06-10T05:59:37;16.60;99.90
52899;DHT22;38763;53.096;6.062;2023-06-10T06:02:03;16.70;99.90
52899;DHT22;38763;53.096;6.062;2023-06-10T06:04:28;16.80;99.90
52899;DHT22;38763;53.096;6.062;2023-06-10T06:06:54;16.90;99.90
52899;DHT22;38763;53.096;6.062;2023-06-10T06:09:20;16.90;99.90
52899;DHT22;38763;53.096;6.062;2023-06-10T06:11:45;17.00;99.90
52899;DHT22;38763;53.096;6.062;2023-06-10T06:14:11;17.10;99.90
52899;DHT22;38763;53.096;6.062;2023-06-10T06:16:38;17.10;99.90
52899;DHT22;38763;53.096;6.062;2023-06-10T06:19:03;17.20;99.90
52899;DHT22;38763;53.096;6.062;2023-06-10T06:21:29;17.20;99.90
52899;DHT22;38763;53.096;6.062;2023-06-10T06:23:55;17.30;99.90
52899;DHT22;38763;53.096;6.062;2023-06-10T06:26:20;17.40;99.90
52899;DHT22;38763;53.096;6.062;2023-06-10T06:28:46;17.50;99.90
52899;DHT22;38763;53.096;6.062;2023-06-10T06:31:12;17.50;99.90
52899;DHT22;38763;53.096;6.062;2023-06-10T06:33:37;17.50;99.90
52899;DHT22;38763;53.096;6.062;2023-06-10T06:36:03;17.60;99.90
52899;DHT22;38763;53.096;6.062;2023-06-10T06:38:29;17.60;99.90
52899;DHT22;38763;53.096;6.062;2023-06-10T06:40:55;17.60;99.90
52899;DHT22;38763;53.096;6.062;2023-06-10T06:43:20;17.60;99.90
52899;DHT22;38763;53.096;6.062;2023-06-10T06:45:46;17.70;99.90
52899;DHT22;38763;53.096;6.062;2023-06-10T06:48:12;17.90;99.90
52899;DHT22;38763;53.096;6.062;2023-06-10T06:50:38;18.00;99.90
52899;DHT22;38763;53.096;6.062;2023-06-10T06:53:04;18.10;99.90
52899;DHT22;38763;53.096;6.062;2023-06-10T06:55:30;18.10;99.90
52899;DHT22;38763;53.096;6.062;2023-06-10T06:57:55;18.10;99.90
52899;DHT22;38763;53.096;6.062;2023-06-10T07:00:22;18.30;99.90
52899;DHT22;38763;53.096;6.062;2023-06-10T07:02:48;18.40;99.90
52899;DHT22;38763;53.096;6.062;2023-06-10T07:05:14;18.50;99.90
52899;DHT22;38763;53.096;6.062;2023-06-10T07:07:39;18.70;99.90
52899;DHT22;38763;53.096;6.062;2023-06-10T07:10:05;18.80;99.90
52899;DHT22;38763;53.096;6.062;2023-06-10T07:12:31;19.20;99.90
52899;DHT22;38763;53.096;6.062;2023-06-10T07:14:57;20.30;99.90
52899;DHT22;38763;53.096;6.062;2023-06-10T07:17:22;21.60;99.90
52899;DHT22;38763;53.096;6.062;2023-06-10T07:19:48;22.80;99.90
52899;DHT22;38763;53.096;6.062;2023-06-10T07:22:14;23.80;99.90
52899;DHT22;38763;53.096;6.062;2023-06-10T07:24:40;24.60;99.90
52899;DHT22;38763;53.096;6.062;2023-06-10T07:27:06;25.20;99.90
52899;DHT22;38763;53.096;6.062;2023-06-10T07:29:32;25.80;99.60
52899;DHT22;38763;53.096;6.062;2023-06-10T07:31:58;25.80;98.30
52899;DHT22;38763;53.096;6.062;2023-06-10T07:34:23;26.20;97.20
52899;DHT22;38763;53.096;6.062;2023-06-10T07:36:49;26.40;97.10
52899;DHT22;38763;53.096;6.062;2023-06-10T07:39:15;25.70;97.30
52899;DHT22;38763;53.096;6.062;2023-06-10T07:41:40;26.00;97.60
52899;DHT22;38763;53.096;6.062;2023-06-10T07:44:06;26.20;97.30
52899;DHT22;38763;53.096;6.062;2023-06-10T07:46:32;26.30;96.90
52899;DHT22;38763;53.096;6.062;2023-06-10T07:48:58;26.60;96.30
52899;DHT22;38763;53.096;6.062;2023-06-10T07:51:23;26.50;95.40
52899;DHT22;38763;53.096;6.062;2023-06-10T07:53:49;26.90;96.30
52899;DHT22;38763;53.096;6.062;2023-06-10T07:56:15;27.10;95.60
52899;DHT22;38763;53.096;6.062;2023-06-10T07:58:41;27.30;95.30
52899;DHT22;38763;53.096;6.062;2023-06-10T08:01:06;27.10;95.30
52899;DHT22;38763;53.096;6.062;2023-06-10T08:03:32;27.90;95.60
52899;DHT22;38763;53.096;6.062;2023-06-10T08:05:58;28.30;94.50
52899;DHT22;38763;53.096;6.062;2023-06-10T08:08:24;28.10;93.80
52899;DHT22;38763;53.096;6.062;2023-06-10T08:10:50;28.50;94.20
52899;DHT22;38763;53.096;6.062;2023-06-10T08:13:15;28.60;93.80
52899;DHT22;38763;53.096;6.062;2023-06-10T08:15:41;28.70;92.10
52899;DHT22;38763;53.096;6.062;2023-06-10T08:18:07;28.90;92.50
52899;DHT22;38763;53.096;6.062;2023-06-10T08:20:32;28.40;92.60
52899;DHT22;38763;53.096;6.062;2023-06-10T08:22:58;28.10;92.00
52899;DHT22;38763;53.096;6.062;2023-06-10T08:25:23;28.30;91.40
52899;DHT22;38763;53.096;6.062;2023-06-10T08:27:49;28.10;92.10
52899;DHT22;38763;53.096;6.062;2023-06-10T08:30:16;28.30;92.00
52899;DHT22;38763;53.096;6.062;2023-06-10T08:32:42;28.60;91.60
52899;DHT22;38763;53.096;6.062;2023-06-10T08:35:07;28.40;91.30
52899;DHT22;38763;53.096;6.062;2023-06-10T08:37:33;28.30;91.50
52899;DHT22;38763;53.096;6.062;2023-06-10T08:39:59;28.80;92.20
52899;DHT22;38763;53.096;6.062;2023-06-10T08:42:28;28.50;90.40
52899;DHT22;38763;53.096;6.062;2023-06-10T08:45:01;28.40;91.00
52899;DHT22;38763;53.096;6.062;2023-06-10T08:47:29;29.10;91.20
52899;DHT22;38763;53.096;6.062;2023-06-10T08:49:57;28.90;90.10
52899;DHT22;38763;53.096;6.062;2023-06-10T08:52:29;28.80;88.50
52899;DHT22;38763;53.096;6.062;2023-06-10T08:55:03;28.40;89.50
52899;DHT22;38763;53.096;6.062;2023-06-10T08:57:30;27.80;90.10
52899;DHT22;38763;53.096;6.062;2023-06-10T08:59:57;28.40;90.30
52899;DHT22;38763;53.096;6.062;2023-06-10T09:02:24;28.80;91.00
52899;DHT22;38763;53.096;6.062;2023-06-10T09:04:50;29.00;88.40
52899;DHT22;38763;53.096;6.062;2023-06-10T09:07:17;29.10;87.40
52899;DHT22;38763;53.096;6.062;2023-06-10T09:09:44;29.10;88.00
52899;DHT22;38763;53.096;6.062;2023-06-10T09:12:14;28.20;88.70
52899;DHT22;38763;53.096;6.062;2023-06-10T09:14:40;28.40;89.90
52899;DHT22;38763;53.096;6.062;2023-06-10T09:17:06;28.70;91.40
52899;DHT22;38763;53.096;6.062;2023-06-10T09:19:32;28.90;89.70
52899;DHT22;38763;53.096;6.062;2023-06-10T09:21:58;28.80;89.20
52899;DHT22;38763;53.096;6.062;2023-06-10T09:24:24;28.80;87.80
52899;DHT22;38763;53.096;6.062;2023-06-10T09:27:04;28.60;88.20
52899;DHT22;38763;53.096;6.062;2023-06-10T09:29:32;28.50;86.60
52899;DHT22;38763;53.096;6.062;2023-06-10T09:32:10;28.40;86.50
52899;DHT22;38763;53.096;6.062;2023-06-10T09:34:36;28.50;88.30
52899;DHT22;38763;53.096;6.062;2023-06-10T09:37:02;28.70;86.40
52899;DHT22;38763;53.096;6.062;2023-06-10T09:39:28;29.00;88.30
52899;DHT22;38763;53.096;6.062;2023-06-10T09:41:53;29.20;88.50
52899;DHT22;38763;53.096;6.062;2023-06-10T09:44:20;29.50;88.80
52899;DHT22;38763;53.096;6.062;2023-06-10T09:46:50;29.20;86.80
52899;DHT22;38763;53.096;6.062;2023-06-10T09:49:20;28.50;86.20
52899;DHT22;38763;53.096;6.062;2023-06-10T09:51:53;29.00;86.50
52899;DHT22;38763;53.096;6.062;2023-06-10T09:54:22;29.20;84.00
52899;DHT22;38763;53.096;6.062;2023-06-10T09:56:51;29.40;86.10
52899;DHT22;38763;53.096;6.062;2023-06-10T09:59:28;29.40;87.90
52899;DHT22;38763;53.096;6.062;2023-06-10T10:01:55;29.40;81.50
52899;DHT22;38763;53.096;6.062;2023-06-10T10:04:24;29.40;84.60
52899;DHT22;38763;53.096;6.062;2023-06-10T10:06:50;29.30;84.60
52899;DHT22;38763;53.096;6.062;2023-06-10T10:09:16;28.50;81.00
52899;DHT22;38763;53.096;6.062;2023-06-10T10:11:43;28.70;84.30
52899;DHT22;38763;53.096;6.062;2023-06-10T10:14:09;28.70;82.90
52899;DHT22;38763;53.096;6.062;2023-06-10T10:16:41;29.20;85.90
52899;DHT22;38763;53.096;6.062;2023-06-10T10:19:28;29.40;82.40
52899;DHT22;38763;53.096;6.062;2023-06-10T10:22:01;29.40;81.80
52899;DHT22;38763;53.096;6.062;2023-06-10T10:25:02;29.70;80.90
52899;DHT22;38763;53.096;6.062;2023-06-10T10:27:36;29.80;86.80
52899;DHT22;38763;53.096;6.062;2023-06-10T10:30:07;29.80;83.60
52899;DHT22;38763;53.096;6.062;2023-06-10T10:33:14;29.60;85.70
52899;DHT22;38763;53.096;6.062;2023-06-10T10:35:33;29.80;90.20
52899;DHT22;38763;53.096;6.062;2023-06-10T10:37:58;29.50;80.00
52899;DHT22;38763;53.096;6.062;2023-06-10T10:40:26;29.20;79.80
52899;DHT22;38763;53.096;6.062;2023-06-10T10:42:56;29.40;78.10
52899;DHT22;38763;53.096;6.062;2023-06-10T10:45:22;29.40;77.10
52899;DHT22;38763;53.096;6.062;2023-06-10T10:47:52;29.20;78.40
52899;DHT22;38763;53.096;6.062;2023-06-10T10:50:20;29.50;86.10
52899;DHT22;38763;53.096;6.062;2023-06-10T10:53:04;29.50;82.50
52899;DHT22;38763;53.096;6.062;2023-06-10T10:55:30;29.70;89.60
52899;DHT22;38763;53.096;6.062;2023-06-10T10:58:06;29.70;87.70
52899;DHT22;38763;53.096;6.062;2023-06-10T11:00:37;29.60;82.40
52899;DHT22;38763;53.096;6.062;2023-06-10T11:05:37;29.20;82.70
52899;DHT22;38763;53.096;6.062;2023-06-10T11:08:04;29.20;81.80
52899;DHT22;38763;53.096;6.062;2023-06-10T11:10:53;28.70;83.80
52899;DHT22;38763;53.096;6.062;2023-06-10T11:13:20;28.60;84.40
52899;DHT22;38763;53.096;6.062;2023-06-10T11:15:48;28.20;86.50
52899;DHT22;38763;53.096;6.062;2023-06-10T11:18:26;28.50;86.70
52899;DHT22;38763;53.096;6.062;2023-06-10T11:26:18;28.00;86.20
52899;DHT22;38763;53.096;6.062;2023-06-10T11:33:47;27.90;86.80
52899;DHT22;38763;53.096;6.062;2023-06-10T11:36:14;27.60;86.80
52899;DHT22;38763;53.096;6.062;2023-06-10T11:38:44;27.60;90.60
52899;DHT22;38763;53.096;6.062;2023-06-10T11:41:11;27.40;85.30
52899;DHT22;38763;53.096;6.062;2023-06-10T11:43:44;27.50;87.10
52899;DHT22;38763;53.096;6.062;2023-06-10T11:46:10;27.30;85.80
52899;DHT22;38763;53.096;6.062;2023-06-10T11:48:36;27.30;86.80
52899;DHT22;38763;53.096;6.062;2023-06-10T11:51:09;27.40;85.90
52899;DHT22;38763;53.096;6.062;2023-06-10T11:53:34;27.50;83.40
52899;DHT22;38763;53.096;6.062;2023-06-10T11:56:00;27.30;82.80
52899;DHT22;38763;53.096;6.062;2023-06-10T11:58:26;27.30;80.60
52899;DHT22;38763;53.096;6.062;2023-06-10T12:00:53;27.30;81.70
52899;DHT22;38763;53.096;6.062;2023-06-10T12:03:20;27.20;83.30
52899;DHT22;38763;53.096;6.062;2023-06-10T12:06:05;27.20;85.60
52899;DHT22;38763;53.096;6.062;2023-06-10T12:08:31;27.20;86.50
52899;DHT22;38763;53.096;6.062;2023-06-10T12:10:57;27.20;87.30
52899;DHT22;38763;53.096;6.062;2023-06-10T12:13:27;26.90;85.90
52899;DHT22;38763;53.096;6.062;2023-06-10T12:15:53;27.00;89.60
52899;DHT22;38763;53.096;6.062;2023-06-10T12:18:19;27.10;87.60
52899;DHT22;38763;53.096;6.062;2023-06-10T12:20:46;27.10;84.70
52899;DHT22;38763;53.096;6.062;2023-06-10T12:23:12;27.10;85.30
52899;DHT22;38763;53.096;6.062;2023-06-10T12:25:38;27.10;83.70
52899;DHT22;38763;53.096;6.062;2023-06-10T12:28:05;27.00;84.10
52899;DHT22;38763;53.096;6.062;2023-06-10T12:30:32;27.00;85.90
52899;DHT22;38763;53.096;6.062;2023-06-10T12:32:58;27.10;87.50
52899;DHT22;38763;53.096;6.062;2023-06-10T12:35:28;27.20;87.10
52899;DHT22;38763;53.096;6.062;2023-06-10T12:38:04;27.20;85.90
52899;DHT22;38763;53.096;6.062;2023-06-10T12:42:58;27.20;86.20
52899;DHT22;38763;53.096;6.062;2023-06-10T12:45:34;27.20;90.50
52899;DHT22;38763;53.096;6.062;2023-06-10T12:48:07;27.20;90.70
52899;DHT22;38763;53.096;6.062;2023-06-10T12:50:35;27.20;88.20
52899;DHT22;38763;53.096;6.062;2023-06-10T12:53:03;27.10;85.10
52899;DHT22;38763;53.096;6.062;2023-06-10T12:55:29;26.90;86.60
52899;DHT22;38763;53.096;6.062;2023-06-10T12:57:54;27.10;86.90
52899;DHT22;38763;53.096;6.062;2023-06-10T13:00:21;27.10;88.80
52899;DHT22;38763;53.096;6.062;2023-06-10T13:02:49;27.10;85.70
52899;DHT22;38763;53.096;6.062;2023-06-10T13:05:17;27.00;86.00
52899;DHT22;38763;53.096;6.062;2023-06-10T13:07:44;27.00;86.50
52899;DHT22;38763;53.096;6.062;2023-06-10T13:10:10;26.80;85.90
52899;DHT22;38763;53.096;6.062;2023-06-10T13:12:35;26.70;85.50
52899;DHT22;38763;53.096;6.062;2023-06-10T13:15:02;26.80;85.60
52899;DHT22;38763;53.096;6.062;2023-06-10T13:17:28;27.00;88.50
52899;DHT22;38763;53.096;6.062;2023-06-10T13:19:54;27.20;90.60
52899;DHT22;38763;53.096;6.062;2023-06-10T13:22:19;27.00;84.90
52899;DHT22;38763;53.096;6.062;2023-06-10T13:24:45;27.00;86.80
52899;DHT22;38763;53.096;6.062;2023-06-10T13:27:12;27.00;87.10
52899;DHT22;38763;53.096;6.062;2023-06-10T13:29:39;27.00;85.70
52899;DHT22;38763;53.096;6.062;2023-06-10T13:32:06;27.00;87.90
52899;DHT22;38763;53.096;6.062;2023-06-10T13:34:32;27.10;86.90
52899;DHT22;38763;53.096;6.062;2023-06-10T13:36:57;27.10;86.30
52899;DHT22;38763;53.096;6.062;2023-06-10T13:39:23;27.20;85.40
52899;DHT22;38763;53.096;6.062;2023-06-10T13:41:49;27.20;85.10
52899;DHT22;38763;53.096;6.062;2023-06-10T13:44:14;27.20;86.50
52899;DHT22;38763;53.096;6.062;2023-06-10T13:46:40;27.20;89.20
52899;DHT22;38763;53.096;6.062;2023-06-10T13:49:06;27.20;88.50
52899;DHT22;38763;53.096;6.062;2023-06-10T13:51:31;27.20;90.80
52899;DHT22;38763;53.096;6.062;2023-06-10T13:53:57;27.10;91.30
52899;DHT22;38763;53.096;6.062;2023-06-10T13:56:23;26.90;91.70
52899;DHT22;38763;53.096;6.062;2023-06-10T13:58:48;26.90;92.80
52899;DHT22;38763;53.096;6.062;2023-06-10T14:01:14;26.80;94.50
52899;DHT22;38763;53.096;6.062;2023-06-10T14:03:40;26.80;94.80
52899;DHT22;38763;53.096;6.062;2023-06-10T14:06:06;26.70;94.50
52899;DHT22;38763;53.096;6.062;2023-06-10T14:08:31;26.70;95.60
52899;DHT22;38763;53.096;6.062;2023-06-10T14:10:57;26.70;94.80
52899;DHT22;38763;53.096;6.062;2023-06-10T14:13:23;26.70;94.90
52899;DHT22;38763;53.096;6.062;2023-06-10T14:15:49;26.70;95.40
52899;DHT22;38763;53.096;6.062;2023-06-10T14:18:15;26.70;95.50
52899;DHT22;38763;53.096;6.062;2023-06-10T14:20:40;26.60;95.20
52899;DHT22;38763;53.096;6.062;2023-06-10T14:23:06;26.70;95.40
52899;DHT22;38763;53.096;6.062;2023-06-10T14:25:31;26.60;95.90
52899;DHT22;38763;53.096;6.062;2023-06-10T14:27:57;26.40;95.90
52899;DHT22;38763;53.096;6.062;2023-06-10T14:30:23;26.40;96.00
52899;DHT22;38763;53.096;6.062;2023-06-10T14:32:49;26.30;95.80
52899;DHT22;38763;53.096;6.062;2023-06-10T14:35:14;26.40;95.80
52899;DHT22;38763;53.096;6.062;2023-06-10T14:37:40;26.40;96.00
52899;DHT22;38763;53.096;6.062;2023-06-10T14:40:06;26.30;97.00
52899;DHT22;38763;53.096;6.062;2023-06-10T14:42:32;26.40;97.50
52899;DHT22;38763;53.096;6.062;2023-06-10T14:44:58;26.40;97.40
52899;DHT22;38763;53.096;6.062;2023-06-10T14:47:24;26.40;96.20
52899;DHT22;38763;53.096;6.062;2023-06-10T14:49:50;26.60;95.50
52899;DHT22;38763;53.096;6.062;2023-06-10T14:52:16;26.70;93.40
52899;DHT22;38763;53.096;6.062;2023-06-10T14:54:41;26.70;94.20
52899;DHT22;38763;53.096;6.062;2023-06-10T14:57:07;26.60;94.40
52899;DHT22;38763;53.096;6.062;2023-06-10T14:59:33;26.40;94.90
52899;DHT22;38763;53.096;6.062;2023-06-10T15:02:00;26.50;95.00
52899;DHT22;38763;53.096;6.062;2023-06-10T15:04:27;26.60;92.10
52899;DHT22;38763;53.096;6.062;2023-06-10T15:06:53;26.70;93.90
52899;DHT22;38763;53.096;6.062;2023-06-10T15:09:19;26.70;93.40
52899;DHT22;38763;53.096;6.062;2023-06-10T15:11:45;26.70;90.40
52899;DHT22;38763;53.096;6.062;2023-06-10T15:14:10;26.60;89.20
52899;DHT22;38763;53.096;6.062;2023-06-10T15:16:36;26.70;89.90
52899;DHT22;38763;53.096;6.062;2023-06-10T15:19:01;26.70;85.20
52899;DHT22;38763;53.096;6.062;2023-06-10T15:21:27;26.70;87.10
52899;DHT22;38763;53.096;6.062;2023-06-10T15:23:53;26.70;87.30
52899;DHT22;38763;53.096;6.062;2023-06-10T15:26:18;26.70;84.90
52899;DHT22;38763;53.096;6.062;2023-06-10T15:28:44;26.70;89.40
52899;DHT22;38763;53.096;6.062;2023-06-10T15:31:10;26.70;83.30
52899;DHT22;38763;53.096;6.062;2023-06-10T15:33:36;26.70;91.90
52899;DHT22;38763;53.096;6.062;2023-06-10T15:36:01;26.70;90.90
52899;DHT22;38763;53.096;6.062;2023-06-10T15:38:27;26.70;83.70
52899;DHT22;38763;53.096;6.062;2023-06-10T15:40:52;26.80;85.40
52899;DHT22;38763;53.096;6.062;2023-06-10T15:43:19;26.70;86.10
52899;DHT22;38763;53.096;6.062;2023-06-10T15:45:44;26.80;91.10
52899;DHT22;38763;53.096;6.062;2023-06-10T15:48:10;26.80;89.80